Terminal Aerodrome Forecast
Issued by NWS Louisville, KY

Home | Current Version | Previous Version | Text Only | Print | Product List | Glossary Off
Versions: 1 2 3 4 5 6 7 8 9 10 11 12 13

000
FTUS43 KLMK 270529
TAFLEX
TAF
KLEX 270529Z 2706/2806 VRB03KT P6SM FEW045 BKN200
     FM271200 22007KT P6SM VCSH SCT040 BKN200
     FM271700 23008KT P6SM -SHRA VCTS SCT035CB OVC090
     FM280200 21005KT P6SM VCSH BKN035 OVC040=

USA.gov is the U.S. government's official web portal to all federal, state and local government web resources and services.